createdAt,value
2022-10-29T00:01:05.633Z,14.82
2022-10-29T00:03:33.735Z,14.55
2022-10-29T00:06:06.735Z,13.88
2022-10-29T00:08:37.214Z,13.73
2022-10-29T00:11:10.436Z,14.00
2022-10-29T00:13:38.738Z,14.52
2022-10-29T00:16:17.776Z,14.07
2022-10-29T00:18:46.456Z,14.07
2022-10-29T00:21:19.397Z,14.75
2022-10-29T00:23:47.893Z,14.90
2022-10-29T00:26:16.360Z,14.68
2022-10-29T00:28:44.279Z,14.73
2022-10-29T00:31:19.084Z,13.62
2022-10-29T00:33:47.313Z,15.10
2022-10-29T00:36:17.620Z,15.20
2022-10-29T00:38:45.771Z,15.35
2022-10-29T00:41:19.727Z,13.45
2022-10-29T00:43:50.889Z,14.15
2022-10-29T00:46:24.204Z,12.93
2022-10-29T00:48:55.555Z,13.85
2022-10-29T00:51:23.531Z,13.60
2022-10-29T00:54:02.649Z,14.10
2022-10-29T00:56:34.615Z,13.15
2022-10-29T00:59:03.025Z,13.25
2022-10-29T01:01:31.100Z,13.50
2022-10-29T01:04:00.289Z,14.10
2022-10-29T01:06:30.711Z,14.45
2022-10-29T01:08:58.524Z,14.40
2022-10-29T01:12:01.128Z,14.57
2022-10-29T01:14:32.844Z,14.07
2022-10-29T01:17:03.166Z,14.60
2022-10-29T01:19:49.694Z,13.32
2022-10-29T01:22:26.183Z,12.90
2022-10-29T01:25:27.378Z,11.98
2022-10-29T01:28:39.597Z,12.23
2022-10-29T01:31:28.554Z,12.13
2022-10-29T01:34:23.271Z,12.85
2022-10-29T01:36:56.418Z,12.27
2022-10-29T01:39:36.612Z,13.27
2022-10-29T01:42:19.955Z,12.80
2022-10-29T01:45:14.989Z,12.80
2022-10-29T01:47:49.793Z,11.55
2022-10-29T01:50:21.835Z,12.25
2022-10-29T01:52:51.060Z,11.95
2022-10-29T01:55:30.993Z,12.10
2022-10-29T01:57:59.208Z,12.30
2022-10-29T02:00:29.117Z,11.95
2022-10-29T02:03:15.192Z,12.25
2022-10-29T02:05:51.673Z,10.77
2022-10-29T02:08:57.784Z,11.98
2022-10-29T02:11:30.827Z,11.20
2022-10-29T02:14:18.761Z,11.65
2022-10-29T02:16:48.449Z,11.40
2022-10-29T02:19:16.237Z,11.98
2022-10-29T02:21:45.190Z,12.05
2022-10-29T02:24:13.045Z,11.70
2022-10-29T02:26:40.547Z,11.80
2022-10-29T02:29:08.096Z,12.45
2022-10-29T02:31:36.271Z,10.75
2022-10-29T02:34:03.932Z,11.35
2022-10-29T02:36:31.564Z,11.52
2022-10-29T02:38:59.523Z,11.27
2022-10-29T02:41:27.083Z,10.38
2022-10-29T02:43:54.705Z,10.00
2022-10-29T02:46:24.239Z,11.00
2022-10-29T02:48:51.871Z,10.20
2022-10-29T02:51:19.536Z,11.43
2022-10-29T02:53:47.592Z,10.23
2022-10-29T02:56:15.112Z,10.27
2022-10-29T02:58:42.672Z,10.55
2022-10-29T03:01:10.680Z,11.12
2022-10-29T03:03:38.305Z,10.40
2022-10-29T03:06:12.767Z,10.55
2022-10-29T03:08:41.006Z,10.05
2022-10-29T03:11:09.157Z,11.05
2022-10-29T03:16:05.976Z,10.07
2022-10-29T03:18:33.522Z,9.88
2022-10-29T03:21:01.140Z,10.20
2022-10-29T03:23:28.952Z,9.32
2022-10-29T03:25:56.795Z,10.00
2022-10-29T03:28:25.982Z,10.32
2022-10-29T03:30:54.531Z,10.60
2022-10-29T03:33:22.359Z,10.60
2022-10-29T03:35:49.998Z,9.52
2022-10-29T03:38:17.937Z,10.07
2022-10-29T03:40:45.430Z,9.95
2022-10-29T03:43:12.922Z,10.35
2022-10-29T03:45:40.811Z,10.82
2022-10-29T03:48:08.448Z,10.95
2022-10-29T03:50:36.003Z,11.00
2022-10-29T03:53:03.852Z,10.35
2022-10-29T03:55:31.430Z,10.60
2022-10-29T03:57:59.183Z,11.63
2022-10-29T04:00:27.188Z,11.65
2022-10-29T04:02:55.428Z,12.05
2022-10-29T04:05:23.233Z,12.45
2022-10-29T04:07:50.849Z,12.18
2022-10-29T04:10:18.735Z,12.27
2022-10-29T04:12:46.859Z,12.35
2022-10-29T04:15:14.408Z,13.57
2022-10-29T04:17:42.299Z,12.88
2022-10-29T04:20:21.163Z,12.30
2022-10-29T04:28:17.613Z,12.80
2022-10-29T04:28:51.529Z,12.70
2022-10-29T04:31:19.413Z,12.93
2022-10-29T04:33:47.398Z,13.25
2022-10-29T04:36:14.973Z,12.77
2022-10-29T04:38:42.608Z,13.57
2022-10-29T04:41:10.485Z,13.50
2022-10-29T04:43:38.104Z,13.62
2022-10-29T04:46:05.705Z,13.27
2022-10-29T04:48:33.633Z,14.02
2022-10-29T04:51:01.248Z,13.77
2022-10-29T04:53:29.019Z,13.88
2022-10-29T04:56:01.741Z,13.05
2022-10-29T04:58:29.304Z,14.32
2022-10-29T05:01:05.118Z,13.98
2022-10-29T05:03:33.622Z,14.90
2022-10-29T05:06:05.563Z,14.80
2022-10-29T05:08:33.344Z,15.07
2022-10-29T05:11:05.488Z,15.15
2022-10-29T05:13:33.712Z,15.00
2022-10-29T05:16:02.114Z,15.05
2022-10-29T05:18:29.817Z,15.10
2022-10-29T05:20:57.920Z,14.87
2022-10-29T05:23:25.778Z,15.20
2022-10-29T05:25:55.831Z,16.23
2022-10-29T05:28:24.773Z,16.98
2022-10-29T05:30:53.413Z,16.23
2022-10-29T05:33:23.503Z,17.42
2022-10-29T05:35:51.855Z,17.17
2022-10-29T05:38:19.983Z,17.67
2022-10-29T05:40:47.568Z,17.52
2022-10-29T05:43:16.589Z,17.77
2022-10-29T05:45:45.409Z,17.37
2022-10-29T05:48:13.487Z,17.67
2022-10-29T05:50:41.252Z,17.20
2022-10-29T05:53:11.883Z,17.52
2022-10-29T05:55:40.177Z,17.17
2022-10-29T05:58:12.070Z,17.00
2022-10-29T06:00:42.656Z,16.58
2022-10-29T06:03:23.112Z,16.67
2022-10-29T06:05:51.568Z,16.48
2022-10-29T06:08:19.563Z,18.05
2022-10-29T06:10:47.247Z,17.90
2022-10-29T06:13:20.460Z,16.27
2022-10-29T06:15:51.231Z,18.58
2022-10-29T06:18:18.801Z,18.65
2022-10-29T06:20:46.444Z,18.35
2022-10-29T06:23:14.341Z,19.60
2022-10-29T06:25:41.932Z,18.80
2022-10-29T06:28:15.401Z,18.83
2022-10-29T06:30:48.619Z,19.12
2022-10-29T06:33:19.871Z,19.08
2022-10-29T06:35:48.415Z,25.20
2022-10-29T06:38:16.199Z,23.50
2022-10-29T06:40:43.946Z,25.02
2022-10-29T06:43:12.723Z,20.10
2022-10-29T06:45:40.517Z,19.35
2022-10-29T06:48:08.216Z,17.60
2022-10-29T06:50:36.079Z,17.85
2022-10-29T06:53:06.278Z,17.75
2022-10-29T06:55:34.625Z,18.17
2022-10-29T06:58:13.811Z,17.40
2022-10-29T07:00:42.759Z,17.70
2022-10-29T07:03:14.911Z,16.98
2022-10-29T07:05:42.533Z,17.40
2022-10-29T07:08:10.700Z,15.77
2022-10-29T07:10:38.768Z,15.82
2022-10-29T07:13:06.412Z,16.65
2022-10-29T07:15:34.012Z,17.83
2022-10-29T07:18:07.096Z,17.15
2022-10-29T07:20:37.364Z,17.42
2022-10-29T07:23:05.915Z,16.62
2022-10-29T07:25:35.320Z,15.65
2022-10-29T07:28:23.212Z,16.52
2022-10-29T07:30:52.467Z,16.10
2022-10-29T07:33:20.120Z,15.55
2022-10-29T07:35:47.730Z,15.43
2022-10-29T07:38:15.603Z,14.98
2022-10-29T07:40:50.393Z,15.52
2022-10-29T07:43:19.644Z,16.15
2022-10-29T07:45:52.067Z,15.77
2022-10-29T07:48:20.858Z,15.50
2022-10-29T07:50:49.040Z,16.30
2022-10-29T07:53:16.657Z,16.45
2022-10-29T07:55:44.545Z,16.08
2022-10-29T07:58:12.637Z,16.20
2022-10-29T08:00:41.328Z,15.57
2022-10-29T08:03:12.283Z,16.85
2022-10-29T08:05:42.562Z,15.68
2022-10-29T08:08:11.094Z,15.80
2022-10-29T08:10:38.727Z,16.62
2022-10-29T08:13:06.810Z,15.57
2022-10-29T08:15:35.292Z,16.10
2022-10-29T08:18:04.850Z,16.55
2022-10-29T08:20:32.475Z,16.90
2022-10-29T08:23:01.225Z,16.70
2022-10-29T08:25:29.518Z,16.75
2022-10-29T08:28:02.726Z,17.23
2022-10-29T08:30:31.896Z,18.42
2022-10-29T08:33:00.841Z,17.92
2022-10-29T08:35:29.527Z,17.42
2022-10-29T08:37:58.030Z,18.05
2022-10-29T08:40:47.595Z,17.27
2022-10-29T08:43:35.229Z,18.80
2022-10-29T08:46:03.437Z,18.83
2022-10-29T08:48:34.360Z,17.83
2022-10-29T08:51:36.431Z,19.10
2022-10-29T08:54:25.678Z,19.12
2022-10-29T08:56:56.716Z,19.08
2022-10-29T08:59:29.575Z,19.80
2022-10-29T09:01:57.386Z,18.05
2022-10-29T09:04:36.742Z,17.77
2022-10-29T09:07:36.467Z,17.75
2022-10-29T09:10:07.079Z,17.40
2022-10-29T09:13:12.110Z,17.05
2022-10-29T09:15:57.572Z,16.83
2022-10-29T09:18:53.195Z,16.98
2022-10-29T09:21:44.827Z,17.95
2022-10-29T09:24:28.038Z,16.55
2022-10-29T09:27:05.373Z,16.87
2022-10-29T09:29:58.931Z,16.02
2022-10-29T09:33:00.146Z,16.35
2022-10-29T09:35:54.951Z,17.55
2022-10-29T09:38:27.071Z,17.87
2022-10-29T09:40:58.215Z,18.55
2022-10-29T09:43:35.237Z,18.65
2022-10-29T09:46:08.980Z,17.05
2022-10-29T09:48:46.403Z,16.60
2022-10-29T09:51:42.163Z,16.42
2022-10-29T09:54:10.346Z,16.58
2022-10-29T09:56:47.783Z,17.90
2022-10-29T09:59:35.153Z,16.87
2022-10-29T10:02:04.726Z,17.52
2022-10-29T10:04:40.388Z,17.75
2022-10-29T10:07:10.660Z,17.62
2022-10-29T10:09:54.351Z,17.40
2022-10-29T10:12:28.058Z,17.37
2022-10-29T10:15:28.290Z,18.33
2022-10-29T10:18:21.963Z,17.83
2022-10-29T10:21:01.627Z,17.70
2022-10-29T10:23:40.720Z,17.85
2022-10-29T10:26:32.868Z,18.35
2022-10-29T10:29:14.320Z,17.70
2022-10-29T10:31:47.930Z,18.35
2022-10-29T10:34:15.462Z,19.70
2022-10-29T10:36:47.795Z,19.08
2022-10-29T10:39:31.619Z,18.62
2022-10-29T10:42:02.742Z,19.08
2022-10-29T10:44:30.748Z,19.45
2022-10-29T10:47:04.809Z,19.80
2022-10-29T10:49:38.046Z,19.73
2022-10-29T10:52:13.825Z,19.95
2022-10-29T10:54:46.412Z,20.35
2022-10-29T10:57:14.802Z,19.83
2022-10-29T10:59:54.280Z,19.50
2022-10-29T11:02:40.286Z,20.25
2022-10-29T11:05:18.796Z,20.90
2022-10-29T11:08:07.094Z,20.50
2022-10-29T11:10:40.833Z,21.33
2022-10-29T11:13:15.954Z,21.98
2022-10-29T11:16:05.461Z,20.27
2022-10-29T11:18:55.190Z,21.15
2022-10-29T11:21:32.859Z,21.35
2022-10-29T11:24:08.902Z,20.60
2022-10-29T11:26:44.713Z,21.85
2022-10-29T11:29:18.400Z,21.98
2022-10-29T11:31:56.808Z,22.27
2022-10-29T11:34:27.322Z,21.77
2022-10-29T11:37:07.198Z,21.30
2022-10-29T11:39:49.398Z,22.45
2022-10-29T11:42:17.613Z,22.17
2022-10-29T11:44:48.166Z,21.62
2022-10-29T11:47:30.929Z,21.70
2022-10-29T11:50:23.161Z,23.50
2022-10-29T11:53:54.702Z,22.98
2022-10-29T11:57:13.781Z,22.20
2022-10-29T12:00:13.420Z,22.55
2022-10-29T12:03:10.052Z,21.55
2022-10-29T12:05:50.004Z,21.77
2022-10-29T12:08:20.630Z,21.08
2022-10-29T12:11:00.498Z,21.05
2022-10-29T12:13:42.865Z,20.23
2022-10-29T12:16:16.474Z,20.17
2022-10-29T12:18:49.964Z,21.25
2022-10-29T12:21:26.591Z,20.12
2022-10-29T12:24:15.532Z,21.73
2022-10-29T12:26:54.538Z,22.62
2022-10-29T12:29:25.806Z,22.08
2022-10-29T12:32:11.157Z,19.40
2022-10-29T12:34:50.883Z,21.67
2022-10-29T12:38:06.324Z,19.80
2022-10-29T12:40:37.961Z,20.70
2022-10-29T12:43:11.887Z,20.70
2022-10-29T12:48:50.049Z,22.37
2022-10-29T12:51:42.949Z,22.60
2022-10-29T12:54:46.348Z,23.05
2022-10-29T12:57:13.854Z,24.40
2022-10-29T12:59:43.408Z,22.52
2022-10-29T13:02:27.783Z,25.02
2022-10-29T13:05:09.711Z,23.52
2022-10-29T13:07:59.275Z,23.02
2022-10-29T13:10:29.716Z,23.62
2022-10-29T13:13:20.252Z,22.02
2022-10-29T13:16:00.645Z,21.55
2022-10-29T13:19:06.626Z,22.58
2022-10-29T13:22:22.757Z,22.98
2022-10-29T13:25:41.587Z,22.20
2022-10-29T13:28:09.490Z,22.67
2022-10-29T13:30:41.049Z,22.87
2022-10-29T13:33:23.703Z,23.90
2022-10-29T13:36:00.820Z,24.50
2022-10-29T13:39:04.437Z,25.60
2022-10-29T13:41:43.276Z,23.48
2022-10-29T13:44:16.709Z,25.73
2022-10-29T13:46:49.667Z,25.27
2022-10-29T13:49:34.405Z,24.92
2022-10-29T13:52:17.341Z,24.75
2022-10-29T13:54:57.097Z,25.58
2022-10-29T13:57:50.824Z,26.77
2022-10-29T14:00:20.977Z,26.67
2022-10-29T14:03:01.873Z,26.17
2022-10-29T14:05:45.177Z,25.73
2022-10-29T14:08:25.028Z,26.20
2022-10-29T14:10:59.513Z,25.17
2022-10-29T14:13:36.917Z,25.52
2022-10-29T14:16:07.496Z,27.70
2022-10-29T14:18:43.871Z,27.05
2022-10-29T14:21:17.288Z,27.42
2022-10-29T14:24:02.542Z,26.73
2022-10-29T14:26:32.450Z,26.75
2022-10-29T14:29:29.672Z,28.17
2022-10-29T14:32:20.711Z,27.58
2022-10-29T14:34:52.635Z,26.92
2022-10-29T14:37:34.183Z,27.92
2022-10-29T14:40:13.952Z,26.17
2022-10-29T14:42:46.610Z,27.70
2022-10-29T14:45:22.844Z,27.50
2022-10-29T14:48:00.519Z,28.10
2022-10-29T14:50:30.033Z,26.98
2022-10-29T14:53:20.773Z,27.20
2022-10-29T14:55:50.210Z,26.95
2022-10-29T14:58:31.083Z,29.73
2022-10-29T15:01:03.539Z,30.70
2022-10-29T15:03:33.875Z,33.22
2022-10-29T15:06:15.921Z,32.17
2022-10-29T15:08:46.325Z,29.17
2022-10-29T15:11:40.080Z,29.77
2022-10-29T15:14:36.694Z,30.02
2022-10-29T15:17:25.133Z,30.98
2022-10-29T15:20:01.378Z,30.45
2022-10-29T15:22:39.578Z,29.70
2022-10-29T15:25:15.458Z,37.83
2022-10-29T15:27:43.587Z,33.70
2022-10-29T15:30:22.796Z,311.62
2022-10-29T15:32:50.950Z,284.70
2022-10-29T15:35:21.545Z,295.65
2022-10-29T15:37:51.592Z,40.70
2022-10-29T15:40:24.187Z,214.18
2022-10-29T15:42:53.198Z,353.10
2022-10-29T15:45:26.962Z,169.25
2022-10-29T15:48:09.792Z,216.12
2022-10-29T15:50:43.243Z,36.55
2022-10-29T15:53:16.092Z,84.90
2022-10-29T15:55:44.064Z,45.45
2022-10-29T15:58:14.857Z,31.65
2022-10-29T16:00:43.238Z,34.03
2022-10-29T16:03:20.039Z,38.50
2022-10-29T16:05:49.990Z,35.28
2022-10-29T16:08:27.382Z,40.08
2022-10-29T16:10:56.184Z,51.25
2022-10-29T16:13:25.980Z,33.92
2022-10-29T16:15:53.607Z,31.15
2022-10-29T16:18:22.344Z,30.20
2022-10-29T16:20:55.403Z,41.10
2022-10-29T16:23:22.983Z,38.25
2022-10-29T16:25:51.005Z,32.35
2022-10-29T16:28:18.703Z,32.47
2022-10-29T16:30:57.117Z,32.22
2022-10-29T16:33:25.254Z,31.92
2022-10-29T16:35:52.816Z,36.13
2022-10-29T16:38:20.488Z,36.35
2022-10-29T16:40:48.317Z,36.00
2022-10-29T16:43:15.853Z,33.70
2022-10-29T16:45:44.008Z,35.08
2022-10-29T16:48:11.901Z,33.03
2022-10-29T16:50:39.493Z,29.85
2022-10-29T16:53:10.115Z,30.58
2022-10-29T16:58:08.723Z,31.08
2022-10-29T17:00:36.817Z,29.52
2022-10-29T17:03:10.960Z,36.08
2022-10-29T17:05:45.315Z,31.85
2022-10-29T17:08:13.703Z,31.62
2022-10-29T17:10:41.271Z,32.97
2022-10-29T17:13:11.287Z,32.60
2022-10-29T17:15:40.988Z,31.90
2022-10-29T17:18:08.726Z,32.33
2022-10-29T17:20:36.414Z,34.25
2022-10-29T17:23:04.237Z,32.67
2022-10-29T17:25:31.913Z,35.08
2022-10-29T17:27:59.965Z,34.67
2022-10-29T17:30:28.150Z,188.65
2022-10-29T17:32:56.246Z,35.88
2022-10-29T17:35:24.241Z,36.20
2022-10-29T17:37:52.156Z,34.95
2022-10-29T17:40:20.378Z,34.15
2022-10-29T17:42:47.873Z,34.15
2022-10-29T17:45:20.415Z,35.03
2022-10-29T17:47:48.198Z,34.55
2022-10-29T17:50:16.206Z,33.35
2022-10-29T17:52:43.777Z,34.30
2022-10-29T17:55:11.362Z,32.05
2022-10-29T17:57:39.944Z,32.95
2022-10-29T18:00:08.170Z,33.75
2022-10-29T18:02:36.025Z,32.13
2022-10-29T18:05:03.912Z,33.75
2022-10-29T18:07:31.473Z,32.85
2022-10-29T18:10:01.183Z,31.55
2022-10-29T18:12:29.182Z,31.12
2022-10-29T18:14:56.951Z,33.33
2022-10-29T18:17:24.814Z,31.40
2022-10-29T18:19:55.441Z,30.55
2022-10-29T18:22:22.971Z,31.15
2022-10-29T18:24:51.057Z,31.23
2022-10-29T18:27:20.232Z,32.63
2022-10-29T18:29:48.088Z,33.38
2022-10-29T18:32:16.492Z,33.78
2022-10-29T18:34:44.120Z,34.67
2022-10-29T18:37:11.908Z,33.90
2022-10-29T18:39:39.811Z,34.10
2022-10-29T18:42:07.543Z,33.80
2022-10-29T18:44:35.614Z,33.47
2022-10-29T18:47:03.543Z,33.83
2022-10-29T18:49:31.299Z,34.28
2022-10-29T18:51:59.092Z,33.67
2022-10-29T18:54:27.163Z,34.65
2022-10-29T18:56:55.083Z,33.88
2022-10-29T18:59:22.755Z,33.35
2022-10-29T19:01:50.914Z,32.70
2022-10-29T19:04:18.693Z,33.22
2022-10-29T19:06:46.621Z,33.85
2022-10-29T19:09:14.816Z,33.30
2022-10-29T19:11:42.751Z,56.42
2022-10-29T19:14:13.163Z,36.22
2022-10-29T19:19:12.625Z,32.45
2022-10-29T19:21:42.308Z,33.42
2022-10-29T19:24:13.862Z,31.93
2022-10-29T19:26:42.258Z,33.33
2022-10-29T19:29:10.827Z,32.47
2022-10-29T19:31:38.820Z,32.92
2022-10-29T19:34:08.151Z,32.45
2022-10-29T19:36:37.005Z,37.22
2022-10-29T19:39:05.579Z,38.03
2022-10-29T19:41:33.667Z,36.28
2022-10-29T19:44:02.570Z,34.38
2022-10-29T19:46:31.081Z,35.90
2022-10-29T19:48:59.223Z,33.70
2022-10-29T19:51:27.905Z,34.03
2022-10-29T19:53:58.032Z,33.83
2022-10-29T19:56:25.899Z,32.83
2022-10-29T19:58:54.084Z,31.62
2022-10-29T20:01:25.204Z,30.27
2022-10-29T20:03:53.172Z,30.98
2022-10-29T20:06:21.468Z,30.42
2022-10-29T20:08:49.084Z,30.58
2022-10-29T20:11:17.189Z,30.67
2022-10-29T20:13:44.701Z,32.38
2022-10-29T20:16:17.037Z,32.75
2022-10-29T20:18:45.744Z,32.97
2022-10-29T20:21:13.878Z,33.00
2022-10-29T20:23:41.752Z,32.15
2022-10-29T20:26:10.157Z,33.03
2022-10-29T20:28:37.795Z,33.53
2022-10-29T20:31:17.951Z,34.97
2022-10-29T20:33:50.456Z,36.00
2022-10-29T20:36:21.289Z,34.22
2022-10-29T20:38:51.269Z,34.83
2022-10-29T20:41:19.924Z,35.80
2022-10-29T20:43:56.321Z,36.70
2022-10-29T20:46:25.116Z,39.28
2022-10-29T20:48:53.161Z,37.85
2022-10-29T20:51:22.869Z,36.65
2022-10-29T20:53:52.309Z,35.72
2022-10-29T20:56:21.758Z,35.47
2022-10-29T20:58:49.418Z,35.92
2022-10-29T21:01:19.229Z,36.25
2022-10-29T21:03:49.985Z,34.75
2022-10-29T21:06:19.128Z,34.72
2022-10-29T21:08:47.842Z,36.00
2022-10-29T21:11:17.152Z,36.17
2022-10-29T21:13:45.656Z,35.28
2022-10-29T21:16:29.100Z,36.90
2022-10-29T21:18:59.842Z,37.50
2022-10-29T21:21:29.267Z,36.20
2022-10-29T21:23:57.547Z,35.63
2022-10-29T21:26:27.137Z,36.50
2022-10-29T21:28:55.134Z,34.95
2022-10-29T21:31:23.823Z,34.40
2022-10-29T21:33:52.726Z,34.70
2022-10-29T21:36:21.345Z,33.88
2022-10-29T21:38:49.613Z,32.95
2022-10-29T21:41:18.496Z,33.80
2022-10-29T21:43:46.119Z,34.65
2022-10-29T21:46:14.090Z,32.10
2022-10-29T21:48:41.800Z,33.63
2022-10-29T21:51:14.786Z,33.28
2022-10-29T21:53:44.305Z,34.13
2022-10-29T21:56:15.459Z,34.15
2022-10-29T21:58:43.751Z,34.35
2022-10-29T22:01:14.175Z,33.13
2022-10-29T22:03:43.896Z,34.80
2022-10-29T22:06:19.586Z,34.33
2022-10-29T22:08:52.094Z,33.92
2022-10-29T22:11:19.655Z,34.03
2022-10-29T22:13:47.589Z,35.70
2022-10-29T22:16:15.198Z,33.58
2022-10-29T22:18:42.930Z,33.78
2022-10-29T22:21:13.901Z,33.85
2022-10-29T22:24:01.722Z,33.22
2022-10-29T22:26:30.222Z,33.17
2022-10-29T22:28:57.884Z,32.75
2022-10-29T22:31:25.899Z,33.75
2022-10-29T22:33:53.898Z,33.75
2022-10-29T22:36:23.805Z,34.05
2022-10-29T22:38:59.548Z,33.90
2022-10-29T22:41:28.243Z,34.75
2022-10-29T22:43:59.375Z,36.15
2022-10-29T22:46:28.641Z,33.83
2022-10-29T22:48:56.993Z,34.00
2022-10-29T22:51:27.563Z,34.35
2022-10-29T22:53:55.627Z,33.50
2022-10-29T22:56:26.092Z,32.25
2022-10-29T22:58:54.352Z,34.85
2022-10-29T23:01:27.561Z,35.28
2022-10-29T23:03:55.460Z,35.10
2022-10-29T23:06:23.739Z,35.25
2022-10-29T23:08:55.682Z,34.60
2022-10-29T23:11:26.047Z,34.88
2022-10-29T23:13:56.148Z,35.00
2022-10-29T23:16:25.713Z,35.60
2022-10-29T23:19:03.597Z,35.90
2022-10-29T23:21:31.799Z,34.42
2022-10-29T23:23:59.503Z,34.95
2022-10-29T23:26:27.709Z,37.10
2022-10-29T23:28:55.745Z,35.40
2022-10-29T23:31:28.205Z,35.95
2022-10-29T23:33:57.985Z,35.30
2022-10-29T23:36:27.145Z,35.17
2022-10-29T23:38:59.547Z,34.95
2022-10-29T23:41:30.039Z,35.88
2022-10-29T23:43:58.403Z,35.03
2022-10-29T23:46:26.043Z,36.53
2022-10-29T23:48:54.189Z,36.22
2022-10-29T23:51:21.834Z,36.17
2022-10-29T23:53:51.815Z,37.45
2022-10-29T23:56:22.752Z,36.47
2022-10-29T23:58:50.290Z,37.97
